sensor_id;sensor_type;location;lat;lon;timestamp;P1;durP1;ratioP1;P2;durP2;ratioP2
11255;SDS011;5685;52.384;13.420;2022-08-20T00:02:00;19.77;;;18.00;;
11255;SDS011;5685;52.384;13.420;2022-08-20T00:05:02;18.60;;;17.00;;
11255;SDS011;5685;52.384;13.420;2022-08-20T00:08:06;19.37;;;17.80;;
11255;SDS011;5685;52.384;13.420;2022-08-20T00:11:11;20.10;;;18.43;;
11255;SDS011;5685;52.384;13.420;2022-08-20T00:14:18;18.83;;;17.33;;
11255;SDS011;5685;52.384;13.420;2022-08-20T00:17:20;18.63;;;17.23;;
11255;SDS011;5685;52.384;13.420;2022-08-20T00:20:24;18.73;;;17.33;;
11255;SDS011;5685;52.384;13.420;2022-08-20T00:23:30;19.07;;;17.67;;
11255;SDS011;5685;52.384;13.420;2022-08-20T00:26:32;17.60;;;16.20;;
11255;SDS011;5685;52.384;13.420;2022-08-20T00:29:36;18.53;;;16.90;;
11255;SDS011;5685;52.384;13.420;2022-08-20T00:32:43;18.37;;;16.87;;
11255;SDS011;5685;52.384;13.420;2022-08-20T00:35:48;18.93;;;17.37;;
11255;SDS011;5685;52.384;13.420;2022-08-20T00:38:56;19.87;;;18.10;;
11255;SDS011;5685;52.384;13.420;2022-08-20T00:41:58;18.37;;;16.87;;
11255;SDS011;5685;52.384;13.420;2022-08-20T00:45:02;19.43;;;17.63;;
11255;SDS011;5685;52.384;13.420;2022-08-20T00:48:05;19.20;;;17.70;;
11255;SDS011;5685;52.384;13.420;2022-08-20T00:51:09;20.23;;;18.43;;
11255;SDS011;5685;52.384;13.420;2022-08-20T00:54:29;19.47;;;17.67;;
11255;SDS011;5685;52.384;13.420;2022-08-20T00:57:37;18.87;;;17.37;;
11255;SDS011;5685;52.384;13.420;2022-08-20T01:00:45;19.27;;;17.63;;
11255;SDS011;5685;52.384;13.420;2022-08-20T01:03:48;19.07;;;17.37;;
11255;SDS011;5685;52.384;13.420;2022-08-20T01:06:56;20.27;;;18.37;;
11255;SDS011;5685;52.384;13.420;2022-08-20T01:09:58;19.33;;;17.63;;
11255;SDS011;5685;52.384;13.420;2022-08-20T01:13:03;19.60;;;18.00;;
11255;SDS011;5685;52.384;13.420;2022-08-20T01:16:13;20.90;;;18.90;;
11255;SDS011;5685;52.384;13.420;2022-08-20T01:19:23;19.67;;;18.00;;
11255;SDS011;5685;52.384;13.420;2022-08-20T01:22:34;20.07;;;18.37;;
11255;SDS011;5685;52.384;13.420;2022-08-20T01:26:05;21.07;;;19.23;;
11255;SDS011;5685;52.384;13.420;2022-08-20T01:29:12;20.90;;;18.93;;
11255;SDS011;5685;52.384;13.420;2022-08-20T01:32:19;20.33;;;18.57;;
11255;SDS011;5685;52.384;13.420;2022-08-20T01:35:21;18.47;;;16.87;;
11255;SDS011;5685;52.384;13.420;2022-08-20T01:38:26;19.50;;;17.70;;
11255;SDS011;5685;52.384;13.420;2022-08-20T01:41:38;19.93;;;18.20;;
11255;SDS011;5685;52.384;13.420;2022-08-20T01:44:49;21.10;;;19.07;;
11255;SDS011;5685;52.384;13.420;2022-08-20T01:47:52;19.00;;;17.20;;
11255;SDS011;5685;52.384;13.420;2022-08-20T01:50:57;19.17;;;17.47;;
11255;SDS011;5685;52.384;13.420;2022-08-20T01:54:07;18.97;;;17.37;;
11255;SDS011;5685;52.384;13.420;2022-08-20T01:57:13;18.77;;;17.20;;
11255;SDS011;5685;52.384;13.420;2022-08-20T02:00:18;19.00;;;17.10;;
11255;SDS011;5685;52.384;13.420;2022-08-20T02:03:22;18.43;;;16.87;;
11255;SDS011;5685;52.384;13.420;2022-08-20T02:06:25;18.00;;;16.30;;
11255;SDS011;5685;52.384;13.420;2022-08-20T02:09:31;18.90;;;17.37;;
11255;SDS011;5685;52.384;13.420;2022-08-20T02:12:39;18.60;;;17.17;;
11255;SDS011;5685;52.384;13.420;2022-08-20T02:15:42;17.83;;;16.53;;
11255;SDS011;5685;52.384;13.420;2022-08-20T02:18:44;18.30;;;16.77;;
11255;SDS011;5685;52.384;13.420;2022-08-20T02:21:49;17.63;;;16.40;;
11255;SDS011;5685;52.384;13.420;2022-08-20T02:24:55;18.67;;;17.03;;
11255;SDS011;5685;52.384;13.420;2022-08-20T02:27:59;16.40;;;15.20;;
11255;SDS011;5685;52.384;13.420;2022-08-20T02:31:05;17.07;;;15.53;;
11255;SDS011;5685;52.384;13.420;2022-08-20T02:34:08;17.57;;;16.27;;
11255;SDS011;5685;52.384;13.420;2022-08-20T02:37:11;19.33;;;17.73;;
11255;SDS011;5685;52.384;13.420;2022-08-20T02:40:16;17.83;;;16.53;;
11255;SDS011;5685;52.384;13.420;2022-08-20T02:43:22;18.03;;;16.70;;
11255;SDS011;5685;52.384;13.420;2022-08-20T02:46:24;16.97;;;15.67;;
11255;SDS011;5685;52.384;13.420;2022-08-20T02:49:27;16.50;;;15.30;;
11255;SDS011;5685;52.384;13.420;2022-08-20T02:52:30;18.33;;;16.93;;
11255;SDS011;5685;52.384;13.420;2022-08-20T02:55:33;17.50;;;16.10;;
11255;SDS011;5685;52.384;13.420;2022-08-20T02:58:36;18.67;;;17.20;;
11255;SDS011;5685;52.384;13.420;2022-08-20T03:01:40;18.23;;;16.83;;
11255;SDS011;5685;52.384;13.420;2022-08-20T03:04:43;18.90;;;17.40;;
11255;SDS011;5685;52.384;13.420;2022-08-20T03:07:46;18.63;;;17.27;;
11255;SDS011;5685;52.384;13.420;2022-08-20T03:10:52;19.10;;;17.57;;
11255;SDS011;5685;52.384;13.420;2022-08-20T03:13:57;19.00;;;17.50;;
11255;SDS011;5685;52.384;13.420;2022-08-20T03:16:59;18.00;;;16.10;;
11255;SDS011;5685;52.384;13.420;2022-08-20T03:20:03;16.93;;;15.77;;
11255;SDS011;5685;52.384;13.420;2022-08-20T03:23:07;16.93;;;15.43;;
11255;SDS011;5685;52.384;13.420;2022-08-20T03:26:10;16.13;;;15.03;;
11255;SDS011;5685;52.384;13.420;2022-08-20T03:29:15;15.20;;;14.13;;
11255;SDS011;5685;52.384;13.420;2022-08-20T03:32:17;16.80;;;15.20;;
11255;SDS011;5685;52.384;13.420;2022-08-20T03:35:20;15.97;;;14.87;;
11255;SDS011;5685;52.384;13.420;2022-08-20T03:38:24;16.03;;;14.93;;
11255;SDS011;5685;52.384;13.420;2022-08-20T03:41:27;16.63;;;15.40;;
11255;SDS011;5685;52.384;13.420;2022-08-20T03:44:32;15.97;;;14.80;;
11255;SDS011;5685;52.384;13.420;2022-08-20T03:47:35;15.77;;;14.70;;
11255;SDS011;5685;52.384;13.420;2022-08-20T03:50:38;15.87;;;14.77;;
11255;SDS011;5685;52.384;13.420;2022-08-20T03:53:41;15.90;;;14.70;;
11255;SDS011;5685;52.384;13.420;2022-08-20T03:56:44;15.93;;;14.83;;
11255;SDS011;5685;52.384;13.420;2022-08-20T03:59:47;16.03;;;14.93;;
11255;SDS011;5685;52.384;13.420;2022-08-20T04:02:50;15.67;;;14.57;;
11255;SDS011;5685;52.384;13.420;2022-08-20T04:05:52;14.70;;;13.70;;
11255;SDS011;5685;52.384;13.420;2022-08-20T04:08:55;15.50;;;14.30;;
11255;SDS011;5685;52.384;13.420;2022-08-20T04:11:58;15.33;;;14.33;;
11255;SDS011;5685;52.384;13.420;2022-08-20T04:15:01;15.30;;;14.30;;
11255;SDS011;5685;52.384;13.420;2022-08-20T04:18:05;14.47;;;13.37;;
11255;SDS011;5685;52.384;13.420;2022-08-20T04:21:10;15.00;;;14.00;;
11255;SDS011;5685;52.384;13.420;2022-08-20T04:24:12;15.30;;;14.30;;
11255;SDS011;5685;52.384;13.420;2022-08-20T04:27:15;14.90;;;13.90;;
11255;SDS011;5685;52.384;13.420;2022-08-20T04:30:20;14.20;;;13.30;;
11255;SDS011;5685;52.384;13.420;2022-08-20T04:33:22;15.57;;;14.40;;
11255;SDS011;5685;52.384;13.420;2022-08-20T04:36:26;15.27;;;14.17;;
11255;SDS011;5685;52.384;13.420;2022-08-20T04:39:28;15.37;;;14.27;;
11255;SDS011;5685;52.384;13.420;2022-08-20T04:42:31;17.10;;;15.90;;
11255;SDS011;5685;52.384;13.420;2022-08-20T04:45:35;15.47;;;14.47;;
11255;SDS011;5685;52.384;13.420;2022-08-20T04:48:37;15.80;;;14.70;;
11255;SDS011;5685;52.384;13.420;2022-08-20T04:51:39;14.40;;;13.43;;
11255;SDS011;5685;52.384;13.420;2022-08-20T04:54:42;17.63;;;16.20;;
11255;SDS011;5685;52.384;13.420;2022-08-20T04:57:45;16.10;;;14.90;;
11255;SDS011;5685;52.384;13.420;2022-08-20T05:00:50;14.63;;;13.63;;
11255;SDS011;5685;52.384;13.420;2022-08-20T05:03:55;15.90;;;14.80;;
11255;SDS011;5685;52.384;13.420;2022-08-20T05:06:59;15.57;;;14.47;;
11255;SDS011;5685;52.384;13.420;2022-08-20T05:10:02;15.67;;;14.57;;
11255;SDS011;5685;52.384;13.420;2022-08-20T05:13:06;16.20;;;15.00;;
11255;SDS011;5685;52.384;13.420;2022-08-20T05:16:11;16.50;;;15.30;;
11255;SDS011;5685;52.384;13.420;2022-08-20T05:19:14;16.17;;;14.97;;
11255;SDS011;5685;52.384;13.420;2022-08-20T05:22:16;16.23;;;15.03;;
11255;SDS011;5685;52.384;13.420;2022-08-20T05:25:18;15.87;;;14.73;;
11255;SDS011;5685;52.384;13.420;2022-08-20T05:28:22;15.33;;;14.23;;
11255;SDS011;5685;52.384;13.420;2022-08-20T05:31:31;16.77;;;15.57;;
11255;SDS011;5685;52.384;13.420;2022-08-20T05:34:34;15.27;;;14.17;;
11255;SDS011;5685;52.384;13.420;2022-08-20T05:37:38;15.53;;;14.43;;
11255;SDS011;5685;52.384;13.420;2022-08-20T05:40:41;16.60;;;15.40;;
11255;SDS011;5685;52.384;13.420;2022-08-20T05:43:45;15.23;;;14.10;;
11255;SDS011;5685;52.384;13.420;2022-08-20T05:46:49;16.20;;;15.10;;
11255;SDS011;5685;52.384;13.420;2022-08-20T05:49:51;16.10;;;14.83;;
11255;SDS011;5685;52.384;13.420;2022-08-20T05:52:53;16.27;;;15.17;;
11255;SDS011;5685;52.384;13.420;2022-08-20T05:55:55;14.40;;;13.30;;
11255;SDS011;5685;52.384;13.420;2022-08-20T05:59:00;16.17;;;14.97;;
11255;SDS011;5685;52.384;13.420;2022-08-20T06:02:05;15.47;;;14.37;;
11255;SDS011;5685;52.384;13.420;2022-08-20T06:05:28;15.80;;;14.63;;
11255;SDS011;5685;52.384;13.420;2022-08-20T06:08:29;16.13;;;14.97;;
11255;SDS011;5685;52.384;13.420;2022-08-20T06:11:32;15.63;;;14.53;;
11255;SDS011;5685;52.384;13.420;2022-08-20T06:14:35;16.73;;;15.47;;
11255;SDS011;5685;52.384;13.420;2022-08-20T06:17:39;20.70;;;18.63;;
11255;SDS011;5685;52.384;13.420;2022-08-20T06:20:42;22.93;;;20.83;;
11255;SDS011;5685;52.384;13.420;2022-08-20T06:23:44;24.77;;;21.90;;
11255;SDS011;5685;52.384;13.420;2022-08-20T06:26:53;24.47;;;22.17;;
11255;SDS011;5685;52.384;13.420;2022-08-20T06:29:56;23.73;;;21.43;;
11255;SDS011;5685;52.384;13.420;2022-08-20T06:33:00;25.20;;;22.23;;
11255;SDS011;5685;52.384;13.420;2022-08-20T06:36:03;23.37;;;21.10;;
11255;SDS011;5685;52.384;13.420;2022-08-20T06:39:06;25.83;;;23.23;;
11255;SDS011;5685;52.384;13.420;2022-08-20T06:42:08;24.30;;;22.00;;
11255;SDS011;5685;52.384;13.420;2022-08-20T06:45:11;23.70;;;21.37;;
11255;SDS011;5685;52.384;13.420;2022-08-20T06:48:18;24.03;;;21.70;;
11255;SDS011;5685;52.384;13.420;2022-08-20T06:51:20;24.70;;;22.20;;
11255;SDS011;5685;52.384;13.420;2022-08-20T06:54:22;25.50;;;22.83;;
11255;SDS011;5685;52.384;13.420;2022-08-20T06:57:24;25.13;;;22.57;;
11255;SDS011;5685;52.384;13.420;2022-08-20T07:00:27;24.87;;;22.40;;
11255;SDS011;5685;52.384;13.420;2022-08-20T07:03:33;25.60;;;23.00;;
11255;SDS011;5685;52.384;13.420;2022-08-20T07:06:37;26.03;;;23.37;;
11255;SDS011;5685;52.384;13.420;2022-08-20T07:09:39;24.10;;;21.67;;
11255;SDS011;5685;52.384;13.420;2022-08-20T07:12:41;24.77;;;22.17;;
11255;SDS011;5685;52.384;13.420;2022-08-20T07:15:45;25.97;;;23.20;;
11255;SDS011;5685;52.384;13.420;2022-08-20T07:18:50;27.00;;;24.23;;
11255;SDS011;5685;52.384;13.420;2022-08-20T07:21:52;27.23;;;24.63;;
11255;SDS011;5685;52.384;13.420;2022-08-20T07:24:55;25.93;;;23.33;;
11255;SDS011;5685;52.384;13.420;2022-08-20T07:27:58;26.13;;;23.60;;
11255;SDS011;5685;52.384;13.420;2022-08-20T07:31:02;28.70;;;25.63;;
11255;SDS011;5685;52.384;13.420;2022-08-20T07:34:23;26.40;;;23.87;;
11255;SDS011;5685;52.384;13.420;2022-08-20T07:37:25;26.63;;;24.00;;
11255;SDS011;5685;52.384;13.420;2022-08-20T07:40:28;25.93;;;23.33;;
11255;SDS011;5685;52.384;13.420;2022-08-20T07:43:34;27.37;;;24.60;;
11255;SDS011;5685;52.384;13.420;2022-08-20T07:46:38;27.90;;;25.00;;
11255;SDS011;5685;52.384;13.420;2022-08-20T07:49:42;29.07;;;25.17;;
11255;SDS011;5685;52.384;13.420;2022-08-20T07:52:44;28.10;;;25.13;;
11255;SDS011;5685;52.384;13.420;2022-08-20T07:55:46;27.30;;;24.40;;
11255;SDS011;5685;52.384;13.420;2022-08-20T07:58:49;26.83;;;24.10;;
11255;SDS011;5685;52.384;13.420;2022-08-20T08:01:55;29.20;;;26.00;;
11255;SDS011;5685;52.384;13.420;2022-08-20T08:04:59;28.40;;;25.50;;
11255;SDS011;5685;52.384;13.420;2022-08-20T08:08:01;31.33;;;27.13;;
11255;SDS011;5685;52.384;13.420;2022-08-20T08:11:05;36.73;;;26.30;;
11255;SDS011;5685;52.384;13.420;2022-08-20T08:14:09;28.73;;;25.80;;
11255;SDS011;5685;52.384;13.420;2022-08-20T08:17:12;28.57;;;25.53;;
11255;SDS011;5685;52.384;13.420;2022-08-20T08:20:17;31.13;;;27.43;;
11255;SDS011;5685;52.384;13.420;2022-08-20T08:23:22;28.00;;;25.10;;
11255;SDS011;5685;52.384;13.420;2022-08-20T08:26:25;29.17;;;26.10;;
11255;SDS011;5685;52.384;13.420;2022-08-20T08:29:27;35.83;;;27.20;;
11255;SDS011;5685;52.384;13.420;2022-08-20T08:32:30;34.30;;;28.70;;
11255;SDS011;5685;52.384;13.420;2022-08-20T08:35:34;29.67;;;25.40;;
11255;SDS011;5685;52.384;13.420;2022-08-20T08:38:39;30.33;;;27.17;;
11255;SDS011;5685;52.384;13.420;2022-08-20T08:41:44;32.07;;;26.73;;
11255;SDS011;5685;52.384;13.420;2022-08-20T08:44:50;34.97;;;29.63;;
11255;SDS011;5685;52.384;13.420;2022-08-20T08:47:53;32.93;;;28.93;;
11255;SDS011;5685;52.384;13.420;2022-08-20T08:50:59;35.23;;;28.83;;
11255;SDS011;5685;52.384;13.420;2022-08-20T08:54:05;33.20;;;28.47;;
11255;SDS011;5685;52.384;13.420;2022-08-20T08:57:09;30.43;;;27.13;;
11255;SDS011;5685;52.384;13.420;2022-08-20T09:00:12;32.93;;;28.30;;
11255;SDS011;5685;52.384;13.420;2022-08-20T09:03:21;30.97;;;26.97;;
11255;SDS011;5685;52.384;13.420;2022-08-20T09:06:30;28.53;;;25.40;;
11255;SDS011;5685;52.384;13.420;2022-08-20T09:09:34;30.13;;;26.50;;
11255;SDS011;5685;52.384;13.420;2022-08-20T09:12:39;35.47;;;28.10;;
11255;SDS011;5685;52.384;13.420;2022-08-20T09:15:43;31.67;;;28.27;;
11255;SDS011;5685;52.384;13.420;2022-08-20T09:18:45;35.87;;;28.80;;
11255;SDS011;5685;52.384;13.420;2022-08-20T09:21:49;30.60;;;26.10;;
11255;SDS011;5685;52.384;13.420;2022-08-20T09:24:51;27.57;;;24.77;;
11255;SDS011;5685;52.384;13.420;2022-08-20T09:27:55;31.57;;;26.93;;
11255;SDS011;5685;52.384;13.420;2022-08-20T09:30:57;33.77;;;27.10;;
11255;SDS011;5685;52.384;13.420;2022-08-20T09:33:59;36.53;;;28.80;;
11255;SDS011;5685;52.384;13.420;2022-08-20T09:37:03;35.67;;;29.13;;
11255;SDS011;5685;52.384;13.420;2022-08-20T09:40:06;34.33;;;29.53;;
11255;SDS011;5685;52.384;13.420;2022-08-20T09:43:10;34.70;;;29.87;;
11255;SDS011;5685;52.384;13.420;2022-08-20T09:46:13;39.17;;;29.53;;
11255;SDS011;5685;52.384;13.420;2022-08-20T09:49:15;38.00;;;30.07;;
11255;SDS011;5685;52.384;13.420;2022-08-20T09:52:20;37.20;;;29.30;;
11255;SDS011;5685;52.384;13.420;2022-08-20T09:55:29;33.50;;;29.53;;
11255;SDS011;5685;52.384;13.420;2022-08-20T09:58:35;32.87;;;28.60;;
11255;SDS011;5685;52.384;13.420;2022-08-20T10:01:44;33.13;;;28.57;;
11255;SDS011;5685;52.384;13.420;2022-08-20T10:04:47;33.03;;;29.40;;
11255;SDS011;5685;52.384;13.420;2022-08-20T10:07:50;33.93;;;29.00;;
11255;SDS011;5685;52.384;13.420;2022-08-20T10:10:52;30.50;;;27.23;;
11255;SDS011;5685;52.384;13.420;2022-08-20T10:13:55;33.43;;;27.47;;
11255;SDS011;5685;52.384;13.420;2022-08-20T10:16:57;32.33;;;27.90;;
11255;SDS011;5685;52.384;13.420;2022-08-20T10:20:01;34.43;;;26.87;;
11255;SDS011;5685;52.384;13.420;2022-08-20T10:23:06;30.37;;;26.10;;
11255;SDS011;5685;52.384;13.420;2022-08-20T10:26:08;31.23;;;26.50;;
11255;SDS011;5685;52.384;13.420;2022-08-20T10:29:12;29.60;;;25.63;;
11255;SDS011;5685;52.384;13.420;2022-08-20T10:32:14;26.63;;;23.93;;
11255;SDS011;5685;52.384;13.420;2022-08-20T10:35:17;27.80;;;25.10;;
11255;SDS011;5685;52.384;13.420;2022-08-20T10:38:21;24.50;;;22.00;;
11255;SDS011;5685;52.384;13.420;2022-08-20T10:41:23;24.50;;;22.23;;
11255;SDS011;5685;52.384;13.420;2022-08-20T10:44:27;23.10;;;21.00;;
11255;SDS011;5685;52.384;13.420;2022-08-20T10:47:30;23.93;;;21.43;;
11255;SDS011;5685;52.384;13.420;2022-08-20T10:50:33;23.33;;;20.87;;
11255;SDS011;5685;52.384;13.420;2022-08-20T10:53:37;22.70;;;19.60;;
11255;SDS011;5685;52.384;13.420;2022-08-20T10:56:39;21.30;;;19.33;;
11255;SDS011;5685;52.384;13.420;2022-08-20T10:59:42;20.40;;;18.60;;
11255;SDS011;5685;52.384;13.420;2022-08-20T11:02:47;20.37;;;18.50;;
11255;SDS011;5685;52.384;13.420;2022-08-20T11:05:49;18.60;;;17.00;;
11255;SDS011;5685;52.384;13.420;2022-08-20T11:08:53;19.77;;;17.80;;
11255;SDS011;5685;52.384;13.420;2022-08-20T11:11:56;18.93;;;16.93;;
11255;SDS011;5685;52.384;13.420;2022-08-20T11:14:58;18.50;;;16.90;;
11255;SDS011;5685;52.384;13.420;2022-08-20T11:18:00;18.20;;;16.70;;
11255;SDS011;5685;52.384;13.420;2022-08-20T11:21:02;18.00;;;16.33;;
11255;SDS011;5685;52.384;13.420;2022-08-20T11:24:06;16.47;;;15.33;;
11255;SDS011;5685;52.384;13.420;2022-08-20T11:27:08;16.53;;;15.23;;
11255;SDS011;5685;52.384;13.420;2022-08-20T11:30:16;16.30;;;15.10;;
11255;SDS011;5685;52.384;13.420;2022-08-20T11:33:24;15.83;;;14.60;;
11255;SDS011;5685;52.384;13.420;2022-08-20T11:36:26;15.87;;;14.47;;
11255;SDS011;5685;52.384;13.420;2022-08-20T11:39:30;16.60;;;15.17;;
11255;SDS011;5685;52.384;13.420;2022-08-20T11:42:32;17.80;;;15.77;;
11255;SDS011;5685;52.384;13.420;2022-08-20T11:45:35;15.57;;;14.47;;
11255;SDS011;5685;52.384;13.420;2022-08-20T11:48:37;15.53;;;14.33;;
11255;SDS011;5685;52.384;13.420;2022-08-20T11:51:39;15.93;;;14.83;;
11255;SDS011;5685;52.384;13.420;2022-08-20T11:54:43;15.90;;;14.70;;
11255;SDS011;5685;52.384;13.420;2022-08-20T11:57:46;16.00;;;14.80;;
11255;SDS011;5685;52.384;13.420;2022-08-20T12:00:49;16.60;;;15.27;;
11255;SDS011;5685;52.384;13.420;2022-08-20T12:03:51;16.57;;;14.90;;
11255;SDS011;5685;52.384;13.420;2022-08-20T12:06:53;15.97;;;14.87;;
11255;SDS011;5685;52.384;13.420;2022-08-20T12:09:57;16.03;;;14.83;;
11255;SDS011;5685;52.384;13.420;2022-08-20T12:12:59;15.83;;;14.63;;
11255;SDS011;5685;52.384;13.420;2022-08-20T12:16:02;16.83;;;15.43;;
11255;SDS011;5685;52.384;13.420;2022-08-20T12:19:06;15.73;;;14.57;;
11255;SDS011;5685;52.384;13.420;2022-08-20T12:22:08;16.13;;;14.93;;
11255;SDS011;5685;52.384;13.420;2022-08-20T12:25:12;15.53;;;14.43;;
11255;SDS011;5685;52.384;13.420;2022-08-20T12:28:15;16.00;;;14.70;;
11255;SDS011;5685;52.384;13.420;2022-08-20T12:31:17;16.50;;;15.20;;
11255;SDS011;5685;52.384;13.420;2022-08-20T12:34:19;15.97;;;14.77;;
11255;SDS011;5685;52.384;13.420;2022-08-20T12:37:22;16.53;;;15.00;;
11255;SDS011;5685;52.384;13.420;2022-08-20T12:40:29;15.73;;;14.53;;
11255;SDS011;5685;52.384;13.420;2022-08-20T12:43:31;15.07;;;13.97;;
11255;SDS011;5685;52.384;13.420;2022-08-20T12:46:33;14.83;;;13.93;;
11255;SDS011;5685;52.384;13.420;2022-08-20T12:49:35;14.90;;;13.80;;
11255;SDS011;5685;52.384;13.420;2022-08-20T12:52:39;14.77;;;13.57;;
11255;SDS011;5685;52.384;13.420;2022-08-20T12:55:44;15.37;;;14.27;;
11255;SDS011;5685;52.384;13.420;2022-08-20T12:58:46;15.20;;;14.10;;
11255;SDS011;5685;52.384;13.420;2022-08-20T13:01:49;15.17;;;14.07;;
11255;SDS011;5685;52.384;13.420;2022-08-20T13:04:52;15.60;;;14.50;;
11255;SDS011;5685;52.384;13.420;2022-08-20T13:07:54;14.53;;;13.40;;
11255;SDS011;5685;52.384;13.420;2022-08-20T13:10:58;14.83;;;13.80;;
11255;SDS011;5685;52.384;13.420;2022-08-20T13:14:00;15.43;;;14.07;;
11255;SDS011;5685;52.384;13.420;2022-08-20T13:17:03;14.67;;;13.67;;
11255;SDS011;5685;52.384;13.420;2022-08-20T13:20:06;14.93;;;13.73;;
11255;SDS011;5685;52.384;13.420;2022-08-20T13:23:13;14.67;;;13.60;;
11255;SDS011;5685;52.384;13.420;2022-08-20T13:26:17;14.90;;;13.80;;
11255;SDS011;5685;52.384;13.420;2022-08-20T13:29:19;14.20;;;13.20;;
11255;SDS011;5685;52.384;13.420;2022-08-20T13:32:22;14.57;;;13.37;;
11255;SDS011;5685;52.384;13.420;2022-08-20T13:35:25;14.93;;;13.80;;
11255;SDS011;5685;52.384;13.420;2022-08-20T13:38:27;15.37;;;14.17;;
11255;SDS011;5685;52.384;13.420;2022-08-20T13:41:31;14.83;;;13.67;;
11255;SDS011;5685;52.384;13.420;2022-08-20T13:44:34;14.83;;;13.73;;
11255;SDS011;5685;52.384;13.420;2022-08-20T13:47:37;15.43;;;14.33;;
11255;SDS011;5685;52.384;13.420;2022-08-20T13:50:40;15.47;;;14.37;;
11255;SDS011;5685;52.384;13.420;2022-08-20T13:53:44;14.97;;;13.97;;
11255;SDS011;5685;52.384;13.420;2022-08-20T13:56:47;14.77;;;13.67;;
11255;SDS011;5685;52.384;13.420;2022-08-20T13:59:51;16.50;;;14.93;;
11255;SDS011;5685;52.384;13.420;2022-08-20T14:02:55;15.60;;;14.30;;
11255;SDS011;5685;52.384;13.420;2022-08-20T14:05:58;16.50;;;14.93;;
11255;SDS011;5685;52.384;13.420;2022-08-20T14:09:01;16.50;;;15.00;;
11255;SDS011;5685;52.384;13.420;2022-08-20T14:12:04;16.33;;;15.13;;
11255;SDS011;5685;52.384;13.420;2022-08-20T14:15:08;16.47;;;15.10;;
11255;SDS011;5685;52.384;13.420;2022-08-20T14:18:12;16.47;;;15.17;;
11255;SDS011;5685;52.384;13.420;2022-08-20T14:21:16;16.60;;;15.27;;
11255;SDS011;5685;52.384;13.420;2022-08-20T14:24:18;16.97;;;15.77;;
11255;SDS011;5685;52.384;13.420;2022-08-20T14:27:22;17.03;;;15.73;;
11255;SDS011;5685;52.384;13.420;2022-08-20T14:30:26;16.30;;;15.00;;
11255;SDS011;5685;52.384;13.420;2022-08-20T14:33:29;17.10;;;15.47;;
11255;SDS011;5685;52.384;13.420;2022-08-20T14:36:32;16.73;;;15.53;;
11255;SDS011;5685;52.384;13.420;2022-08-20T14:39:34;17.20;;;15.70;;
11255;SDS011;5685;52.384;13.420;2022-08-20T14:42:38;16.67;;;15.27;;
11255;SDS011;5685;52.384;13.420;2022-08-20T14:45:41;16.07;;;14.73;;
11255;SDS011;5685;52.384;13.420;2022-08-20T14:48:43;17.70;;;16.10;;
11255;SDS011;5685;52.384;13.420;2022-08-20T14:51:45;16.67;;;15.37;;
11255;SDS011;5685;52.384;13.420;2022-08-20T14:54:48;16.50;;;15.20;;
11255;SDS011;5685;52.384;13.420;2022-08-20T14:57:52;17.40;;;15.77;;
11255;SDS011;5685;52.384;13.420;2022-08-20T15:00:54;16.77;;;15.40;;
11255;SDS011;5685;52.384;13.420;2022-08-20T15:03:57;16.03;;;14.73;;
11255;SDS011;5685;52.384;13.420;2022-08-20T15:06:59;15.57;;;14.47;;
11255;SDS011;5685;52.384;13.420;2022-08-20T15:10:02;16.13;;;14.83;;
11255;SDS011;5685;52.384;13.420;2022-08-20T15:13:09;16.93;;;15.53;;
11255;SDS011;5685;52.384;13.420;2022-08-20T15:16:12;16.47;;;15.20;;
11255;SDS011;5685;52.384;13.420;2022-08-20T15:19:14;17.50;;;16.10;;
11255;SDS011;5685;52.384;13.420;2022-08-20T15:22:16;17.20;;;15.77;;
11255;SDS011;5685;52.384;13.420;2022-08-20T15:25:20;16.17;;;14.97;;
11255;SDS011;5685;52.384;13.420;2022-08-20T15:28:27;16.50;;;15.20;;
11255;SDS011;5685;52.384;13.420;2022-08-20T15:31:29;16.63;;;15.10;;
11255;SDS011;5685;52.384;13.420;2022-08-20T15:34:32;19.77;;;17.27;;
11255;SDS011;5685;52.384;13.420;2022-08-20T15:37:37;18.67;;;17.07;;
11255;SDS011;5685;52.384;13.420;2022-08-20T15:40:42;18.80;;;16.87;;
11255;SDS011;5685;52.384;13.420;2022-08-20T15:43:45;16.80;;;15.43;;
11255;SDS011;5685;52.384;13.420;2022-08-20T15:46:47;17.57;;;16.07;;
11255;SDS011;5685;52.384;13.420;2022-08-20T15:49:52;19.47;;;17.47;;
11255;SDS011;5685;52.384;13.420;2022-08-20T15:53:02;18.60;;;16.83;;
11255;SDS011;5685;52.384;13.420;2022-08-20T15:56:12;18.53;;;16.73;;
11255;SDS011;5685;52.384;13.420;2022-08-20T15:59:37;18.73;;;17.07;;
11255;SDS011;5685;52.384;13.420;2022-08-20T16:06:30;18.93;;;17.43;;
11255;SDS011;5685;52.384;13.420;2022-08-20T16:09:37;19.93;;;18.13;;
11255;SDS011;5685;52.384;13.420;2022-08-20T16:12:51;23.60;;;19.87;;
11255;SDS011;5685;52.384;13.420;2022-08-20T16:16:00;39.63;;;26.07;;
11255;SDS011;5685;52.384;13.420;2022-08-20T16:19:04;30.03;;;22.83;;
11255;SDS011;5685;52.384;13.420;2022-08-20T16:22:12;28.83;;;22.43;;
11255;SDS011;5685;52.384;13.420;2022-08-20T16:25:18;24.27;;;19.93;;
11255;SDS011;5685;52.384;13.420;2022-08-20T16:28:22;27.83;;;19.43;;
11255;SDS011;5685;52.384;13.420;2022-08-20T16:31:34;21.50;;;19.20;;
11255;SDS011;5685;52.384;13.420;2022-08-20T16:34:43;25.73;;;20.07;;
11255;SDS011;5685;52.384;13.420;2022-08-20T16:37:54;23.87;;;18.83;;
11255;SDS011;5685;52.384;13.420;2022-08-20T16:41:11;20.27;;;16.73;;
11255;SDS011;5685;52.384;13.420;2022-08-20T16:44:19;17.50;;;15.77;;
11255;SDS011;5685;52.384;13.420;2022-08-20T16:47:31;19.53;;;17.23;;
11255;SDS011;5685;52.384;13.420;2022-08-20T16:50:38;18.70;;;16.90;;
11255;SDS011;5685;52.384;13.420;2022-08-20T16:53:50;18.50;;;15.87;;
11255;SDS011;5685;52.384;13.420;2022-08-20T16:56:55;17.70;;;16.10;;
11255;SDS011;5685;52.384;13.420;2022-08-20T17:00:05;16.07;;;14.73;;
11255;SDS011;5685;52.384;13.420;2022-08-20T17:03:23;17.13;;;15.53;;
11255;SDS011;5685;52.384;13.420;2022-08-20T17:06:31;18.87;;;16.87;;
11255;SDS011;5685;52.384;13.420;2022-08-20T17:09:36;17.37;;;15.80;;
11255;SDS011;5685;52.384;13.420;2022-08-20T17:12:42;18.30;;;16.73;;
11255;SDS011;5685;52.384;13.420;2022-08-20T17:15:51;17.33;;;15.53;;
11255;SDS011;5685;52.384;13.420;2022-08-20T17:18:56;17.10;;;15.33;;
11255;SDS011;5685;52.384;13.420;2022-08-20T17:22:18;18.37;;;16.73;;
11255;SDS011;5685;52.384;13.420;2022-08-20T17:25:32;17.60;;;15.90;;
11255;SDS011;5685;52.384;13.420;2022-08-20T17:28:37;16.63;;;15.13;;
11255;SDS011;5685;52.384;13.420;2022-08-20T17:31:51;16.67;;;15.17;;
11255;SDS011;5685;52.384;13.420;2022-08-20T17:34:59;16.73;;;15.33;;
11255;SDS011;5685;52.384;13.420;2022-08-20T17:38:03;16.40;;;15.20;;
11255;SDS011;5685;52.384;13.420;2022-08-20T17:41:07;16.33;;;15.00;;
11255;SDS011;5685;52.384;13.420;2022-08-20T17:44:16;15.67;;;14.50;;
11255;SDS011;5685;52.384;13.420;2022-08-20T17:47:24;17.37;;;15.97;;
11255;SDS011;5685;52.384;13.420;2022-08-20T17:50:36;16.27;;;15.07;;
11255;SDS011;5685;52.384;13.420;2022-08-20T17:53:41;15.50;;;14.10;;
11255;SDS011;5685;52.384;13.420;2022-08-20T17:56:47;16.23;;;15.03;;
11255;SDS011;5685;52.384;13.420;2022-08-20T17:59:56;16.60;;;15.40;;
11255;SDS011;5685;52.384;13.420;2022-08-20T18:03:06;17.47;;;15.97;;